Tiempo atmosférico en la estación meteorológica de Burgo de Osma, Soria (932 m.)



Fecha
DESCASC
Temp. máxima en grados centígrados (hora)
DESCASC
Temp. mínima en grados centígrados (hora)
DESCASC
Temp. media en grados centígrados
DESCASC
Racha de viento máxima en m/sg (hora)
DESCASC
Velocidad máxima media en intervalos de 10 minutos(hora)
DESCASC
Precipitaciones diarias en mm
DESCASC
Precipitaciones de 00:00 a 06:00 en mm
DESCASC
Precipitaciones de 06:00 a 12:00 en mm
DESCASC
Precipitaciones de 12:00 a 18:00 en mm
DESCASC
Precipitaciones de 18:00 a 24:00 en mm
DESCASC
18-08-2019 31 (16:30) 9.4 (07:30) 20.2 13.33 (17:30) 8.89 (17:50) 0 0 0 0 0
17-08-2019 34.5 (17:30) 10.7 (07:30) 22.6 10 (14:20) 5.56 (17:50) 0 0 0 0 0
16-08-2019 33.3 (17:10) 11.9 (06:40) 22.6 10.83 (17:30) 6.39 (19:20) 0 0 0 0 0
15-08-2019 31.2 (17:30) 11.8 (00:00) 21.5 11.11 (14:50) 5.83 (15:00) 0 0 0 0 0
14-08-2019 30 (18:50) 6.5 (00:00) 18.3 10.28 (17:10) 6.39 (17:10) 0 0 0 0 0
13-08-2019 25.3 (17:50) 7.8 (00:00) 16.5 11.39 (17:40) 6.67 (17:40) 0 0 0 0 0
12-08-2019 24.2 (17:30) 9.2 (00:00) 16.7 9.17 (14:50) 6.39 (02:30) 0 0 0 0 0
11-08-2019 25.1 (16:00) 15.1 (00:00) 20.1 12.5 (06:10) 9.17 (06:10) 0 0 0 0 0
10-08-2019 29.7 (18:00) 11.1 (00:00) 20.4 8.61 (16:10) 4.17 (18:50) 0 0 0 0 0
09-08-2019 29.6 (16:20) 13.5 (00:00) 21.6 16.39 (12:30) 11.94 (19:40) 0 0 0 0 0
08-08-2019 32.5 (19:10) 12.5 (00:00) 22.5 13.89 (19:10) 7.5 (16:10) 0 0 0 0 0
07-08-2019 26.8 (17:00) 18.3 (00:00) 22.5 12.22 (18:10) 8.33 (18:10) 0 0 0 0 0
06-08-2019 34.4 (18:20) 11.7 (00:00) 23.1 9.72 (18:30) 5.56 (15:40) 0 0 0 0 0
05-08-2019 34.9 (17:20) 12.4 (00:00) 23.7 7.22 (17:40) 5 (21:40) 0 0 0 0 0
04-08-2019 34.4 (17:30) 12.4 (00:00) 23.4 10.83 (16:30) 6.11 (16:30) 0 0 0 0 0
03-08-2019 34.9 (17:00) 14.4 (00:00) 24.7 10.83 (15:50) 6.67 (16:00) 0 0 0 0 0
02-08-2019 33.3 (16:30) 11.7 (00:00) 22.5 8.61 (21:40) 5 (21:40) 0 0 0 0 0
01-08-2019 31.1 (16:00) 18.2 (00:00) 24.7 13.33 (16:10) 8.33 (15:40) 0 0 0 0 0
31-07-2019 32.5 (17:20) 7.9 (00:00) 20.2 12.78 (22:20) 8.61 (22:20) 0 0 0 0 0
30-07-2019 27.8 (19:10) 11 (00:00) 19.4 8.33 (15:40) 5.83 (04:20) 0 0 0 0 0
29-07-2019 29.2 (17:20) 7.9 (00:00) 18.6 15.28 (16:40) 8.89 (18:00) 0 0 0 0 0
28-07-2019 26.2 (17:40) 5.4 (00:00) 15.8 9.72 (17:30) 6.11 (19:10) 0 0 0 0 0
27-07-2019 20.6 (13:30) 13 (00:00) 16.8 12.78 (15:30) 9.44 (15:20) 0 0 0 0 0
26-07-2019 27 (18:30) 17.8 (00:00) 22.4 11.67 (17:50) 6.94 (17:40) 0.2 0.2 0 0 0
25-07-2019 35.2 (17:40) 15.2 (00:00) 25.2 11.11 (19:00) 7.22 (19:10) 0 0 0 0 0
24-07-2019 35.3 (17:10) 15.5 (00:00) 25.4 10.28 (18:00) 6.67 (01:50) 0 0 0 0 0
23-07-2019 35 (16:50) 14.3 (00:00) 24.7 12.5 (22:10) 8.61 (22:10) 0 0 0 0 0
22-07-2019 35.5 (18:00) 18.3 (00:00) 26.9 12.22 (18:10) 7.22 (14:00) 0 0 0 0 0
21-07-2019 36.1 (17:00) 18.6 (00:00) 27.3 19.44 (18:30) 9.44 (18:30) 6.4 0 0 0 6.4

Gráficas

Temp. máximas Temp. mínimas Temp. medias Precipitaciones Rachas de viento máximas Velocidades máximas media en intervalos de 10 minutos

Datos horarios

Fecha y hora oficial Temperatura (ºC) Velocidad del viento (km/h) Dirección del viento Racha (km/h) Dirección de racha Precipitación (mm) Presión (hPa) Tendencia (hPa) Humedad (%)
2019-08-19 23:00:00 18.5 21 Sudeste 42 Este 0 -- -- 62
2019-08-19 22:00:00 19.3 26 Sudeste 44 Sudeste 0 -- -- 59
2019-08-19 21:00:00 20.5 16 Este 23 Sudeste 0 -- -- 54
2019-08-19 20:00:00 21.7 8 Este 21 Este 0 -- -- 51
2019-08-19 19:00:00 22.6 10 Este 26 Nordeste 0 -- -- 50
2019-08-19 18:00:00 23.1 17 Nordeste 31 Este 0 -- -- 49
2019-08-19 17:00:00 23.8 18 Este 27 Este 0 -- -- 48
2019-08-19 16:00:00 24.5 15 Este 27 Este 0 -- -- 47
2019-08-19 15:00:00 24.3 17 Este 25 Este 0 -- -- 48
2019-08-19 14:00:00 24.4 17 Este 28 Sudeste 0 -- -- 47
2019-08-19 13:00:00 23.5 16 Este 25 Este 0 -- -- 51
2019-08-19 12:00:00 21.8 13 Sudeste 26 Este 0 -- -- 56
2019-08-19 11:00:00 20.1 15 Este 24 Este 0 -- -- 62
2019-08-19 10:00:00 17.6 15 Este 22 Este 0 -- -- 69
2019-08-19 09:00:00 16.1 15 Este 22 Este 0 -- -- 77
2019-08-19 08:00:00 15.5 9 Este 15 Este 0 -- -- 81
2019-08-19 07:00:00 15.5 6 Este 13 Este 0 -- -- 81
2019-08-19 06:00:00 16 5 Nordeste 9 Este 0 -- -- 79
2019-08-19 05:00:00 15.4 5 Este 9 Este 0 -- -- 79
2019-08-19 04:00:00 15 2 Este 5 Sudeste 0 -- -- 77
2019-08-19 03:00:00 16.1 2 Este 15 Oeste 0 -- -- 74
2019-08-19 02:00:00 18.5 12 Oeste 14 Oeste 0 -- -- 68
2019-08-19 01:00:00 18.4 11 Oeste 14 Oeste 0 -- -- 66
2019-08-19 00:00:00 20.5 4 Sur 13 Noroeste 0 -- -- 59
2019-08-18 23:00:00 21.8 13 Noroeste 29 Noroeste 0 -- -- 56
2019-08-18 22:00:00 23.5 21 Noroeste 31 Noroeste 0 -- -- 51
2019-08-18 21:00:00 26.3 20 Noroeste 40 Oeste 0 -- -- 33
2019-08-18 20:00:00 28.9 28 Noroeste 41 Oeste 0 -- -- 25
2019-08-18 19:00:00 28.7 21 Oeste 42 Oeste 0 -- -- 20
2019-08-18 18:00:00 30.2 31 Oeste 48 Oeste 0 -- -- 19
2019-08-18 17:00:00 30.7 24 Oeste 38 Oeste 0 -- -- 22
2019-08-18 16:00:00 29.7 15 Noroeste 28 Oeste 0 -- -- 26
2019-08-18 15:00:00 28.9 19 Noroeste 32 Noroeste 0 -- -- 28
2019-08-18 14:00:00 27.6 12 Oeste 20 Oeste 0 -- -- 30
2019-08-18 13:00:00 28.2 10 Sudoeste 19 Sudoeste 0 -- -- 30
2019-08-18 12:00:00 25.8 12 Oeste 21 Oeste 0 -- -- 35
2019-08-18 11:00:00 22.9 13 Oeste 19 Oeste 0 -- -- 40
2019-08-18 10:00:00 20.1 3 Este 5 Este 0 -- -- 41
2019-08-18 09:00:00 13.4 2 Nordeste 5 Sudeste 0 -- -- 55
2019-08-18 08:00:00 10.3 0 Calma 5 Sudeste 0 -- -- 64
2019-08-18 07:00:00 10 0 Calma 4 Este 0 -- -- 65
2019-08-18 06:00:00 10.8 0 Calma 4 Este 0 -- -- 62
2019-08-18 05:00:00 12 0 Calma 5 Nordeste 0 -- -- 57
2019-08-18 04:00:00 12.4 2 Sudeste 5 Este 0 -- -- 58
2019-08-18 03:00:00 13.8 3 Sudeste 5 Sudeste 0 -- -- 54
2019-08-18 02:00:00 14.8 0 Calma 4 Sudeste 0 -- -- 52
2019-08-18 01:00:00 16.5 3 Sudeste 4 Sudeste 0 -- -- 49
2019-08-18 00:00:00 19.2 2 Sur 5 Sudeste 0 -- -- 43
2019-08-17 23:00:00 23.2 2 Sudeste 10 Noroeste 0 -- -- 31
2019-08-17 22:00:00 26.2 9 Noroeste 13 Noroeste 0 -- -- 25
2019-08-17 21:00:00 29.9 12 Noroeste 28 Oeste 0 -- -- 22
2019-08-17 20:00:00 32.7 16 Noroeste 28 Noroeste 0 -- -- 19
2019-08-17 19:00:00 33.9 13 Noroeste 33 Noroeste 0 -- -- 17
2019-08-17 18:00:00 34 14 Noroeste 30 Oeste 0 -- -- 19
2019-08-17 17:00:00 34.2 12 Noroeste 32 Noroeste 0 -- -- 20
2019-08-17 16:00:00 32.9 12 Oeste 32 Oeste 0 -- -- 22
2019-08-17 15:00:00 32.8 9 Oeste 36 Oeste 0 -- -- 22
2019-08-17 14:00:00 31.2 15 Oeste 32 Oeste 0 -- -- 24
2019-08-17 13:00:00 30.7 9 Oeste 18 Sudoeste 0 -- -- 25
2019-08-17 12:00:00 28.8 5 Oeste 9 Sudoeste 0 -- -- 27
2019-08-17 11:00:00 25.6 4 Sudeste 9 Sudeste 0 -- -- 34
2019-08-17 10:00:00 20.3 4 Este 6 Este 0 -- -- 48
2019-08-17 09:00:00 15.3 2 Nordeste 6 Sudeste 0 -- -- 63
2019-08-17 08:00:00 12 3 Nordeste 5 Nordeste 0 -- -- 75
2019-08-17 07:00:00 11 3 Sudeste 6 Este 0 -- -- 77
2019-08-17 06:00:00 12.2 3 Nordeste 6 Nordeste 0 -- -- 71
2019-08-17 05:00:00 13.2 2 Sudeste 5 Sudeste 0 -- -- 66
2019-08-17 04:00:00 15.1 4 Sudeste 6 Sudeste 0 -- -- 60
2019-08-17 03:00:00 16 0 Calma 5 Este 0 -- -- 56
2019-08-17 02:00:00 16.4 0 Calma 5 Este 0 -- -- 55
2019-08-17 01:00:00 18.8 3 Sudeste 4 Noroeste 0 -- -- 49
2019-08-17 00:00:00 20.1 0 Calma 9 Sudeste 0 -- -- 44
2019-08-16 23:00:00 25 4 Noroeste 14 Noroeste 0 -- -- 33
2019-08-16 22:00:00 26.6 12 Noroeste 17 Noroeste 0 -- -- 30
2019-08-16 21:00:00 29.1 13 Noroeste 28 Noroeste 0 -- -- 26
2019-08-16 20:00:00 31.8 21 Oeste 34 Oeste 0 -- -- 22
2019-08-16 19:00:00 32.6 21 Noroeste 35 Oeste 0 -- -- 23
2019-08-16 18:00:00 33.1 15 Oeste 39 Oeste 0 -- -- 23
2019-08-16 17:00:00 32.8 18 Oeste 35 Oeste 0 -- -- 24
2019-08-16 16:00:00 32.4 20 Oeste 36 Oeste 0 -- -- 24
2019-08-16 15:00:00 31.2 16 Noroeste 28 Noroeste 0 -- -- 26
2019-08-16 14:00:00 30.9 13 Oeste 25 Sudoeste 0 -- -- 27
2019-08-16 13:00:00 31.4 4 Norte 12 Sudeste 0 -- -- 28
2019-08-16 12:00:00 28.1 4 Sur 13 Sur 0 -- -- 36
2019-08-16 11:00:00 25 6 Este 19 Este 0 -- -- 43
2019-08-16 10:00:00 21.4 15 Este 21 Este 0 -- -- 49
2019-08-16 09:00:00 16.7 5 Este 9 Este 0 -- -- 62
2019-08-16 08:00:00 13.6 7 Este 10 Este 0 -- -- 72
2019-08-16 07:00:00 12.2 8 Este 10 Este 0 -- -- 77
2019-08-16 06:00:00 12.7 7 Este 9 Nordeste 0 -- -- 78
2019-08-16 05:00:00 13.9 3 Este 10 Este 0 -- -- 72
2019-08-16 04:00:00 14.7 5 Este 9 Este 0 -- -- 70
2019-08-16 03:00:00 15.1 6 Este 10 Nordeste 0 -- -- 69
2019-08-16 02:00:00 17 7 Este 13 Este 0 -- -- 62
2019-08-16 01:00:00 18.2 8 Este 15 Sudeste 0 -- -- 59
2019-08-16 00:00:00 19.8 6 Sudeste 14 Sudeste 0 -- -- 53
2019-08-15 23:00:00 21.4 6 Sudeste 20 Este 0 -- -- 50
2019-08-15 22:00:00 23.6 13 Este 21 Este 0 -- -- 47
2019-08-15 21:00:00 25.7 13 Norte 28 Norte 0 -- -- 38
2019-08-15 20:00:00 28.4 18 Norte 32 Norte 0 -- -- 33
2019-08-15 19:00:00 29.8 15 Noroeste 32 Oeste 0 -- -- 29
2019-08-15 18:00:00 29.9 17 Noroeste 32 Oeste 0 -- -- 28
2019-08-15 17:00:00 30 17 Oeste 37 Oeste 0 -- -- 26
2019-08-15 16:00:00 29.3 18 Noroeste 35 Noroeste 0 -- -- 28
2019-08-15 15:00:00 28.7 21 Oeste 40 Oeste 0 -- -- 30
2019-08-15 14:00:00 27.5 16 Oeste 30 Noroeste 0 -- -- 30
2019-08-15 13:00:00 27 7 Sudoeste 19 Oeste 0 -- -- 37
2019-08-15 12:00:00 25 5 Oeste 12 Sudoeste 0 -- -- 44
2019-08-15 11:00:00 22.9 6 Sudoeste 19 Este 0 -- -- 49
2019-08-15 10:00:00 20.2 13 Este 22 Este 0 -- -- 59
2019-08-15 09:00:00 16.6 6 Este 12 Este 0 -- -- 68
2019-08-15 08:00:00 13.6 0 Calma 6 Este 0 -- -- 75
2019-08-15 07:00:00 12.2 3 Este 8 Este 0 -- -- 77
2019-08-15 06:00:00 13.7 4 Sudeste 14 Este 0 -- -- 71
2019-08-15 05:00:00 12.9 5 Este 9 Este 0 -- -- 73
2019-08-15 04:00:00 12.7 6 Este 8 Nordeste 0 -- -- 70
2019-08-15 03:00:00 14.5 5 Este 6 Este 0 -- -- 63
2019-08-15 02:00:00 15.9 2 Este 6 Sudeste 0 -- -- 57
2019-08-15 01:00:00 18 3 Este 6 Este 0 -- -- 50
2019-08-15 00:00:00 19.5 3 Este 11 Nordeste 0 -- -- 45
2019-08-14 23:00:00 19.4 2 Este 10 Oeste 0 -- -- 39
2019-08-14 22:00:00 24.1 9 Noroeste 10 Noroeste 0 -- -- 28
2019-08-14 21:00:00 26.6 8 Noroeste 19 Oeste 0 -- -- 25
2019-08-14 20:00:00 29 14 Noroeste 26 Oeste 0 -- -- 21
2019-08-14 19:00:00 30 15 Oeste 32 Oeste 0 -- -- 20
2019-08-14 18:00:00 29.7 17 Noroeste 37 Oeste 0 -- -- 20
2019-08-14 17:00:00 28.9 20 Oeste 35 Oeste 0 -- -- 22
2019-08-14 16:00:00 28.9 14 Noroeste 33 Noroeste 0 -- -- 22
2019-08-14 15:00:00 27.6 15 Noroeste 33 Oeste 0 -- -- 23
2019-08-14 14:00:00 26.5 19 Oeste 28 Oeste 0 -- -- 24
2019-08-14 13:00:00 25.5 12 Oeste 28 Oeste 0 -- -- 26
2019-08-14 12:00:00 24.5 9 Oeste 24 Oeste 0 -- -- 27
2019-08-14 11:00:00 22.4 2 Este 8 Este 0 -- -- 36
2019-08-14 10:00:00 16.8 2 Este 6 Este 0 -- -- 50
2019-08-14 09:00:00 10.5 5 Este 9 Este 0 -- -- 67
2019-08-14 08:00:00 8 3 Nordeste 6 Nordeste 0 -- -- 74
2019-08-14 07:00:00 6.5 4 Nordeste 7 Este 0 -- -- 79
2019-08-14 06:00:00 7 4 Este 6 Este 0 -- -- 76
2019-08-14 05:00:00 7.9 5 Este 8 Nordeste 0 -- -- 73
2019-08-14 04:00:00 7.8 5 Este 8 Este 0 -- -- 71
2019-08-14 03:00:00 8.6 2 Este 6 Este 0 -- -- 67
2019-08-14 02:00:00 10.2 0 Calma 5 Sudeste 0 -- -- 63
2019-08-14 01:00:00 13.7 0 Calma 4 Este 0 -- -- 49
2019-08-14 00:00:00 14.6 5 Este 10 Este 0 -- -- 44
2019-08-13 23:00:00 16.7 5 Este 21 Noroeste 0 -- -- 40
2019-08-13 22:00:00 19.3 12 Noroeste 21 Noroeste 0 -- -- 33
2019-08-13 21:00:00 21.9 14 Oeste 30 Oeste 0 -- -- 26
2019-08-13 20:00:00 24.2 19 Oeste 31 Noroeste 0 -- -- 19
2019-08-13 19:00:00 24.7 20 Noroeste 36 Noroeste 0 -- -- 17
2019-08-13 18:00:00 25.2 19 Noroeste 41 Oeste 0 -- -- 19
2019-08-13 17:00:00 25.1 17 Oeste 33 Oeste 0 -- -- 19
2019-08-13 16:00:00 24.3 18 Oeste 32 Oeste 0 -- -- 23
2019-08-13 15:00:00 24 10 Noroeste 28 Oeste 0 -- -- 24
2019-08-13 14:00:00 22.2 12 Oeste 23 Oeste 0 -- -- 26
2019-08-13 13:00:00 21.5 6 Sudeste 15 Oeste 0 -- -- 32
2019-08-13 12:00:00 19.5 6 Sudoeste 15 Sur 0 -- -- 36
2019-08-13 11:00:00 17.1 6 Este 18 Este 0 -- -- 44
2019-08-13 10:00:00 14.5 13 Este 18 Sudeste 0 -- -- 55
2019-08-13 09:00:00 10.9 5 Este 6 Este 0 -- -- 71
2019-08-13 08:00:00 7.8 2 Este 6 Nordeste 0 -- -- 83
2019-08-13 07:00:00 8.9 3 Este 8 Nordeste 0 -- -- 79
2019-08-13 06:00:00 10.8 5 Sudeste 11 Sudeste 0 -- -- 72
2019-08-13 05:00:00 11.3 3 Este 15 Sudeste 0 -- -- 69
2019-08-13 04:00:00 12.4 8 Sudeste 19 Sudeste 0 -- -- 65
2019-08-13 03:00:00 13.1 8 Este 13 Sudeste 0 -- -- 64
2019-08-13 02:00:00 13.4 4 Sur 9 Norte 0 -- -- 62
2019-08-13 01:00:00 14 5 Norte 15 Este 0 -- -- 59
2019-08-13 00:00:00 14.4 9 Este 18 Este 0 -- -- 58
2019-08-12 23:00:00 15.2 13 Este 23 Este 0 -- -- 54
2019-08-12 22:00:00 16.1 8 Este 18 Nordeste 0 -- -- 47
2019-08-12 21:00:00 18.6 7 Nordeste 25 Noroeste 0 -- -- 38
2019-08-12 20:00:00 21.6 18 Noroeste 31 Noroeste 0 -- -- 31
2019-08-12 19:00:00 22.8 10 Noroeste 31 Noroeste 0 -- -- 26
2019-08-12 18:00:00 23.9 13 Oeste 27 Oeste 0 -- -- 25
2019-08-12 17:00:00 23.5 13 Oeste 32 Noroeste 0 -- -- 25
2019-08-12 16:00:00 22.3 14 Noroeste 33 Noroeste 0 -- -- 28
2019-08-12 15:00:00 21.7 19 Noroeste 33 Norte 0 -- -- 29
2019-08-12 14:00:00 20.7 10 Norte 31 Noroeste 0 -- -- 33
2019-08-12 13:00:00 19.8 9 Oeste 27 Noroeste 0 -- -- 37
2019-08-12 12:00:00 18.1 13 Norte 24 Noroeste 0 -- -- 45
2019-08-12 11:00:00 15.3 12 Oeste 21 Oeste 0 -- -- 59
2019-08-12 10:00:00 12.7 15 Oeste 25 Oeste 0 -- -- 71
2019-08-12 09:00:00 10.8 16 Oeste 25 Oeste 0 -- -- 79
2019-08-12 08:00:00 9.4 21 Oeste 27 Oeste 0 -- -- 86
2019-08-12 07:00:00 9.5 20 Oeste 26 Oeste 0 -- -- 86
2019-08-12 06:00:00 10.2 17 Oeste 23 Oeste 0 -- -- 86
2019-08-12 05:00:00 11 19 Oeste 24 Oeste 0 -- -- 83
2019-08-12 04:00:00 11.8 17 Oeste 29 Oeste 0 -- -- 81
2019-08-12 03:00:00 13.1 19 Oeste 29 Oeste 0 -- -- 73
2019-08-12 02:00:00 15.1 11 Oeste 16 Oeste 0 -- -- 45
2019-08-12 01:00:00 16.4 13 Oeste 17 Oeste 0 -- -- 41
2019-08-12 00:00:00 17.2 11 Oeste 17 Oeste 0 -- -- 38
2019-08-11 23:00:00 18.3 10 Oeste 14 Noroeste 0 -- -- 38
2019-08-11 22:00:00 19.6 12 Oeste 26 Oeste 0 -- -- 36
2019-08-11 21:00:00 21.2 19 Oeste 35 Oeste 0 -- -- 34
2019-08-11 20:00:00 23.3 22 Noroeste 38 Oeste 0 -- -- 31
2019-08-11 19:00:00 23 22 Noroeste 39 Noroeste 0 -- -- 36
2019-08-11 18:00:00 23 24 Oeste 41 Noroeste 0 -- -- 37
2019-08-11 17:00:00 24.3 29 Noroeste 41 Oeste 0 -- -- 35
2019-08-11 16:00:00 25.1 26 Oeste 39 Oeste 0 -- -- 33
2019-08-11 15:00:00 24.1 21 Oeste 39 Oeste 0 -- -- 35
2019-08-11 14:00:00 24 16 Oeste 35 Oeste 0 -- -- 36
2019-08-11 13:00:00 23.5 15 Oeste 28 Oeste 0 -- -- 37
2019-08-11 12:00:00 22.6 8 Noroeste 21 Oeste 0 -- -- 40
2019-08-11 11:00:00 20.3 12 Oeste 18 Oeste 0 -- -- 47
2019-08-11 10:00:00 18.6 6 Sur 13 Oeste 0 -- -- 61
2019-08-11 09:00:00 16.4 3 Sudoeste 11 Norte 0 -- -- 69
2019-08-11 08:00:00 15.1 6 Norte 17 Noroeste 0 -- -- 75
2019-08-11 07:00:00 15.9 11 Noroeste 45 Oeste 0 -- -- 74
2019-08-11 06:00:00 17.7 19 Oeste 39 Oeste 0 -- -- 62
2019-08-11 05:00:00 17.8 8 Oeste 16 Oeste 0 -- -- 60
2019-08-11 04:00:00 16.8 5 Noroeste 14 Oeste 0 -- -- 69
2019-08-11 03:00:00 16.9 0 Calma 8 Este 0 -- -- 65
2019-08-11 02:00:00 17.2 3 Noroeste 8 Nordeste 0 -- -- 62
2019-08-11 01:00:00 18.5 5 Nordeste 14 Este 0 -- -- 57
2019-08-11 00:00:00 19.3 5 Este 9 Este 0 -- -- 57
2019-08-10 23:00:00 21.5 0 Calma 20 Noroeste 0 -- -- 48
2019-08-10 22:00:00 22.5 14 Noroeste 19 Noroeste 0 -- -- 43
2019-08-10 21:00:00 25 14 Noroeste 18 Oeste 0 -- -- 35
2019-08-10 20:00:00 26.5 10 Noroeste 22 Oeste 0 -- -- 33
2019-08-10 19:00:00 27.2 14 Noroeste 29 Oeste 0 -- -- 32
2019-08-10 18:00:00 29.7 5 Noroeste 23 Oeste 0 -- -- 28
2019-08-10 17:00:00 26.8 12 Noroeste 31 Oeste 0 -- -- 34
2019-08-10 16:00:00 26.4 9 Noroeste 24 Oeste 0 -- -- 37
2019-08-10 15:00:00 25.1 8 Noroeste 20 Oeste 0 -- -- 40
2019-08-10 14:00:00 23.8 8 Oeste 20 Oeste 0 -- -- 44
2019-08-10 13:00:00 22.3 9 Noroeste 23 Oeste 0 -- -- 49
2019-08-10 12:00:00 20.6 8 Oeste 19 Oeste 0 -- -- 54
2019-08-10 11:00:00 18.7 12 Noroeste 19 Oeste 0 -- -- 57
2019-08-10 10:00:00 17 9 Oeste 15 Noroeste 0 -- -- 72
2019-08-10 09:00:00 14.9 4 Este 8 Este 0 -- -- 83
2019-08-10 08:00:00 12.2 2 Sudoeste 12 Oeste 0 -- -- 93
2019-08-10 07:00:00 12.3 8 Oeste 10 Sudoeste 0 -- -- 91
2019-08-10 06:00:00 12.7 0 Calma 5 Sur 0 -- -- 92
2019-08-10 05:00:00 11.6 3 Oeste 6 Este 0 -- -- 94
2019-08-10 04:00:00 12 2 Este 8 Este 0 -- -- 92
2019-08-10 03:00:00 12.4 0 Calma 9 Oeste 0 -- -- 92
2019-08-10 02:00:00 13.7 6 Noroeste 12 Norte 0 -- -- 89
2019-08-10 01:00:00 14 5 Norte 12 Este 0 -- -- 89
2019-08-10 00:00:00 14.9 9 Este 13 Este 0 -- -- 83
2019-08-09 23:00:00 16.5 3 Noroeste 12 Noroeste 0 -- -- 79
2019-08-09 22:00:00 17.1 12 Noroeste 41 Oeste 0 -- -- 75
2019-08-09 21:00:00 18.5 32 Noroeste 54 Oeste 0 -- -- 68
2019-08-09 20:00:00 21.7 40 Oeste 57 Oeste 0 -- -- 51
2019-08-09 19:00:00 24.4 33 Oeste 52 Oeste 0 -- -- 56
2019-08-09 18:00:00 27 39 Oeste 50 Oeste 0 -- -- 49
2019-08-09 17:00:00 28.3 30 Noroeste 46 Noroeste 0 -- -- 46
2019-08-09 16:00:00 28.2 21 Oeste 41 Oeste 0 -- -- 46
2019-08-09 15:00:00 27.1 29 Oeste 45 Oeste 0 -- -- 49
2019-08-09 14:00:00 26.7 30 Oeste 53 Oeste 0 -- -- 48
2019-08-09 13:00:00 27.8 35 Oeste 59 Oeste 0 -- -- 41
2019-08-09 12:00:00 27.1 31 Oeste 47 Oeste 0 -- -- 41
2019-08-09 11:00:00 25.5 7 Oeste 14 Oeste 0 -- -- 47
2019-08-09 10:00:00 23.2 3 Nordeste 6 Nordeste 0 -- -- 55
2019-08-09 09:00:00 18 4 Este 6 Este 0 -- -- 66
2019-08-09 08:00:00 14.6 3 Este 6 Nordeste 0 -- -- 78
2019-08-09 07:00:00 14 3 Este 5 Este 0 -- -- 79
2019-08-09 06:00:00 15.1 2 Sudeste 5 Sudeste 0 -- -- 74
2019-08-09 05:00:00 16.1 0 Calma 5 Este 0 -- -- 70
2019-08-09 04:00:00 18.2 0 Calma 5 Este 0 -- -- 64
2019-08-09 03:00:00 19.2 0 Calma 8 Sudoeste 0 -- -- 58
2019-08-09 02:00:00 21.1 5 Oeste 13 Sudoeste 0 -- -- 53
2019-08-09 01:00:00 23.1 10 Sudoeste 22 Oeste 0 -- -- 48
2019-08-09 00:00:00 24.5 12 Oeste 24 Oeste 0 -- -- 43
2019-08-08 23:00:00 26.1 12 Oeste 34 Oeste 0 -- -- 39
2019-08-08 22:00:00 28 21 Oeste 31 Oeste 0 -- -- 34
2019-08-08 21:00:00 29.5 19 Sudoeste 32 Sudoeste 0 -- -- 36
2019-08-08 20:00:00 31.1 16 Oeste 50 Sudoeste 0 -- -- 33
2019-08-08 19:00:00 31.7 9 Sudoeste 29 Sudoeste 0 -- -- 32
2019-08-08 18:00:00 31.5 20 Oeste 33 Oeste 0 -- -- 32
2019-08-08 17:00:00 29.9 21 Oeste 40 Oeste 0 -- -- 36
2019-08-08 16:00:00 29.9 19 Oeste 41 Sudoeste 0 -- -- 37
2019-08-08 15:00:00 29.9 24 Oeste 39 Sudoeste 0 -- -- 38
2019-08-08 14:00:00 28 16 Oeste 37 Oeste 0 -- -- 42
2019-08-08 13:00:00 26.8 20 Sudoeste 32 Oeste 0 -- -- 44
2019-08-08 12:00:00 25.2 18 Oeste 32 Oeste 0 -- -- 48
2019-08-08 11:00:00 24.1 15 Oeste 26 Oeste 0 -- -- 47
2019-08-08 10:00:00 22 5 Oeste 12 Oeste 0 -- -- 52
2019-08-08 09:00:00 18.5 2 Este 5 Este 0 -- -- 63
2019-08-08 08:00:00 14.4 3 Este 5 Este 0 -- -- 75
2019-08-08 07:00:00 13.3 2 Sudeste 5 Sudeste 0 -- -- 79
2019-08-08 06:00:00 12.6 0 Calma 5 Sudeste 0 -- -- 81
2019-08-08 05:00:00 13.3 0 Calma 5 Sudeste 0 -- -- 79
2019-08-08 04:00:00 14.4 0 Calma 6 Sudoeste 0 -- -- 76
2019-08-08 03:00:00 15.6 0 Calma 5 Sudeste 0 -- -- 70
2019-08-08 02:00:00 16.8 6 Sudoeste 11 Oeste 0 -- -- 67
2019-08-08 01:00:00 17.7 8 Oeste 15 Oeste 0 -- -- 63
2019-08-08 00:00:00 19.5 10 Oeste 13 Oeste 0 -- -- 58
2019-08-07 23:00:00 19.9 4 Oeste 12 Oeste 0 -- -- 56
2019-08-07 22:00:00 21.4 8 Oeste 22 Oeste 0 -- -- 51
2019-08-07 21:00:00 22.1 15 Oeste 32 Oeste 0 -- -- 46
2019-08-07 20:00:00 22.3 27 Oeste 37 Oeste 0 -- -- 46
2019-08-07 19:00:00 24.7 18 Sudoeste 44 Oeste 0 -- -- 35
2019-08-07 18:00:00 26.1 25 Sudoeste 39 Oeste 0 -- -- 33
2019-08-07 17:00:00 26.8 22 Sudoeste 37 Oeste 0 -- -- 30
2019-08-07 16:00:00 26.1 19 Oeste 31 Oeste 0 -- -- 39
2019-08-07 15:00:00 26.1 24 Sudoeste 32 Sudoeste 0 -- -- 38
2019-08-07 14:00:00 25.5 14 Oeste 23 Sudoeste 0 -- -- 44
2019-08-07 13:00:00 25.4 12 Oeste 28 Oeste 0 -- -- 43
2019-08-07 12:00:00 24.5 13 Noroeste 24 Oeste 0 -- -- 46
2019-08-07 11:00:00 23.6 14 Noroeste 22 Oeste 0 -- -- 48
2019-08-07 10:00:00 21.8 9 Oeste 13 Noroeste 0 -- -- 52
2019-08-07 09:00:00 20.2 5 Oeste 13 Oeste 0 -- -- 63
2019-08-07 08:00:00 18.8 7 Oeste 12 Noroeste 0 -- -- 66
2019-08-07 07:00:00 18.5 3 Nordeste 6 Norte 0 -- -- 67
2019-08-07 06:00:00 19.2 0 Calma 20 Oeste 0 -- -- 65
2019-08-07 05:00:00 19.8 16 Oeste 27 Oeste 0 -- -- 64
2019-08-07 04:00:00 20.2 17 Oeste 22 Oeste 0 -- -- 65
2019-08-07 03:00:00 20.7 7 Sudoeste 20 Oeste 0 -- -- 60
2019-08-07 02:00:00 22.5 17 Oeste 27 Oeste 0 -- -- 49
2019-08-07 01:00:00 22.5 7 Sudoeste 17 Noroeste 0 -- -- 43
2019-08-07 00:00:00 24.6 13 Noroeste 19 Noroeste 0 -- -- 38
2019-08-06 23:00:00 25 13 Noroeste 17 Oeste 0 -- -- 37
2019-08-06 22:00:00 26.6 11 Oeste 15 Oeste 0 -- -- 33
2019-08-06 21:00:00 28.3 8 Noroeste 21 Noroeste 0 -- -- 29
2019-08-06 20:00:00 30.1 15 Noroeste 23 Noroeste 0 -- -- 24
2019-08-06 19:00:00 31.6 13 Noroeste 35 Oeste 0 -- -- 22
2019-08-06 18:00:00 31.9 12 Noroeste 24 Noroeste 0 -- -- 22
2019-08-06 17:00:00 32.1 16 Noroeste 31 Oeste 0 -- -- 22
2019-08-06 16:00:00 31.9 14 Noroeste 31 Oeste 0 -- -- 22
2019-08-06 15:00:00 31.9 9 Oeste 31 Noroeste 0 -- -- 24
2019-08-06 14:00:00 30.9 12 Oeste 27 Oeste 0 -- -- 26
2019-08-06 13:00:00 29.4 10 Oeste 26 Oeste 0 -- -- 30
2019-08-06 12:00:00 27.7 10 Noroeste 18 Noroeste 0 -- -- 34
2019-08-06 11:00:00 26 5 Oeste 12 Oeste 0 -- -- 37
2019-08-06 10:00:00 22.5 5 Este 8 Sudeste 0 -- -- 44
2019-08-06 09:00:00 16.9 0 Calma 4 Este 0 -- -- 60
2019-08-06 08:00:00 13.3 2 Nordeste 8 Nordeste 0 -- -- 71
2019-08-06 07:00:00 11.8 4 Este 8 Este 0 -- -- 77
2019-08-06 06:00:00 12.7 3 Este 6 Nordeste 0 -- -- 74
2019-08-06 05:00:00 13.7 3 Nordeste 7 Nordeste 0 -- -- 68
2019-08-06 04:00:00 14.8 3 Sudeste 5 Sudeste 0 -- -- 64
2019-08-06 03:00:00 15.7 2 Sudeste 4 Sudeste 0 -- -- 59
2019-08-06 02:00:00 17 0 Calma 5 Sudeste 0 -- -- 49
2019-08-06 01:00:00 19.9 2 Sudoeste 10 Oeste 0 -- -- 37
2019-08-06 00:00:00 22.5 3 Sudeste 8 Norte 0 -- -- 31
2019-08-05 23:00:00 24.4 0 Calma 21 Oeste 0 -- -- 27
2019-08-05 22:00:00 28.2 17 Oeste 26 Noroeste 0 -- -- 21
2019-08-05 21:00:00 30.7 15 Noroeste 20 Noroeste 0 -- -- 18
2019-08-05 20:00:00 33.2 9 Norte 21 Noroeste 0 -- -- 17
2019-08-05 19:00:00 33.7 12 Noroeste 26 Noroeste 0 -- -- 17
2019-08-05 18:00:00 34.6 6 Sudoeste 26 Oeste 0 -- -- 17
2019-08-05 17:00:00 34.2 10 Noroeste 22 Noroeste 0 -- -- 17
2019-08-05 16:00:00 33.3 8 Sudoeste 23 Oeste 0 -- -- 21
2019-08-05 15:00:00 32 11 Oeste 24 Oeste 0 -- -- 23
2019-08-05 14:00:00 31.3 9 Sur 25 Sudoeste 0 -- -- 24
2019-08-05 13:00:00 30.3 5 Sudoeste 13 Noroeste 0 -- -- 27
2019-08-05 12:00:00 27.9 5 Sur 15 Sudeste 0 -- -- 32
2019-08-05 11:00:00 25.2 5 Oeste 12 Sudoeste 0 -- -- 36
2019-08-05 10:00:00 21.9 4 Este 6 Nordeste 0 -- -- 51
2019-08-05 09:00:00 16.8 2 Este 8 Este 0 -- -- 62
2019-08-05 08:00:00 13.6 0 Calma 8 Este 0 -- -- 74
2019-08-05 07:00:00 12.5 4 Nordeste 5 Nordeste 0 -- -- 76
2019-08-05 06:00:00 13.5 4 Este 7 Nordeste 0 -- -- 70
2019-08-05 05:00:00 14.2 4 Este 5 Este 0 -- -- 66
2019-08-05 04:00:00 14.9 2 Este 5 Sudeste 0 -- -- 62
2019-08-05 03:00:00 16 3 Este 6 Nordeste 0 -- -- 59
2019-08-05 02:00:00 17.2 0 Calma 5 Sudeste 0 -- -- 52
2019-08-05 01:00:00 18.8 4 Sudeste 7 Sudeste 0 -- -- 47
2019-08-05 00:00:00 20.8 2 Sudeste 17 Nordeste 0 -- -- 41
2019-08-04 23:00:00 24.1 11 Oeste 13 Oeste 0 -- -- 34
2019-08-04 22:00:00 26 7 Noroeste 12 Noroeste 0 -- -- 29
2019-08-04 21:00:00 30.4 11 Noroeste 28 Norte 0 -- -- 22
2019-08-04 20:00:00 32.2 19 Noroeste 31 Noroeste 0 -- -- 19
2019-08-04 19:00:00 33.1 15 Noroeste 32 Noroeste 0 -- -- 19
2019-08-04 18:00:00 33.9 12 Noroeste 33 Oeste 0 -- -- 17
2019-08-04 17:00:00 33.7 19 Oeste 39 Oeste 0 -- -- 19
2019-08-04 16:00:00 33.1 18 Oeste 37 Oeste 0 -- -- 20
2019-08-04 15:00:00 32.5 9 Oeste 27 Oeste 0 -- -- 20
2019-08-04 14:00:00 31.2 12 Sudoeste 26 Oeste 0 -- -- 25
2019-08-04 13:00:00 30.9 5 Sur 14 Sudoeste 0 -- -- 29
2019-08-04 12:00:00 28.8 4 Oeste 15 Sur 0 -- -- 33
2019-08-04 11:00:00 25 6 Sur 16 Sudoeste 0 -- -- 39
2019-08-04 10:00:00 22.5 6 Este 9 Este 0 -- -- 47
2019-08-04 09:00:00 16.7 4 Este 6 Nordeste 0 -- -- 65
2019-08-04 08:00:00 12.7 2 Sudeste 4 Este 0 -- -- 78
2019-08-04 07:00:00 13 2 Noroeste 9 Este 0 -- -- 75
2019-08-04 06:00:00 13.7 4 Este 8 Este 0 -- -- 73
2019-08-04 05:00:00 14.9 2 Este 4 Sudeste 0 -- -- 66
2019-08-04 04:00:00 17.4 0 Calma 3 Sudeste 0 -- -- 58
2019-08-04 03:00:00 18.8 0 Calma 3 Sudeste 0 -- -- 54
2019-08-04 02:00:00 19.9 0 Calma 5 Este 0 -- -- 50
2019-08-04 01:00:00 21.5 0 Calma 12 Este 0 -- -- 46
2019-08-04 00:00:00 24 4 Este 14 Este 0 -- -- 40
2019-08-03 23:00:00 26.2 8 Nordeste 20 Nordeste 0 -- -- 36
2019-08-03 22:00:00 26.7 8 Noroeste 15 Noroeste 0 -- -- 20
2019-08-03 21:00:00 30.8 12 Noroeste 24 Noroeste 0 -- -- 16
2019-08-03 20:00:00 32.9 20 Noroeste 28 Oeste 0 -- -- 15
2019-08-03 19:00:00 33.9 12 Noroeste 30 Noroeste 0 -- -- 16
2019-08-03 18:00:00 34.1 14 Oeste 31 Oeste 0 -- -- 15
2019-08-03 17:00:00 34.9 12 Sudoeste 35 Oeste 0 -- -- 15
2019-08-03 16:00:00 33.6 24 Oeste 39 Oeste 0 -- -- 16
2019-08-03 15:00:00 33.3 14 Sudoeste 32 Sudoeste 0 -- -- 16
2019-08-03 14:00:00 31.9 15 Oeste 31 Oeste 0 -- -- 19
2019-08-03 13:00:00 31.5 5 Norte 13 Oeste 0 -- -- 25
2019-08-03 12:00:00 29.8 5 Norte 16 Sudeste 0 -- -- 32
2019-08-03 11:00:00 26.8 9 Este 19 Este 0 -- -- 40
2019-08-03 10:00:00 23.8 14 Este 23 Este 0 -- -- 46
2019-08-03 09:00:00 20.1 10 Este 19 Este 0 -- -- 50
2019-08-03 08:00:00 15.6 4 Este 14 Este 0 -- -- 64
2019-08-03 07:00:00 15.2 11 Este 15 Este 0 -- -- 66
2019-08-03 06:00:00 15.3 7 Este 14 Este 0 -- -- 67
2019-08-03 05:00:00 15.4 4 Este 8 Este 0 -- -- 68
2019-08-03 04:00:00 15.5 2 Nordeste 6 Este 0 -- -- 69
2019-08-03 03:00:00 17.7 4 Este 10 Este 0 -- -- 61
2019-08-03 02:00:00 19.6 8 Este 15 Este 0 -- -- 56
2019-08-03 01:00:00 21 9 Nordeste 17 Este 0 -- -- 52
2019-08-03 00:00:00 22.2 10 Este 14 Este 0 -- -- 47
2019-08-02 23:00:00 23.7 8 Nordeste 21 Este 0 -- -- 41
2019-08-02 22:00:00 25.5 18 Este 31 Este 0 -- -- 38
2019-08-02 21:00:00 30 8 Norte 26 Este 0 -- -- 26
2019-08-02 20:00:00 31.6 12 Noroeste 21 Noroeste 0 -- -- 22
2019-08-02 19:00:00 32.6 8 Noroeste 27 Oeste 0 -- -- 21
2019-08-02 18:00:00 33.1 5 Noroeste 26 Sudoeste 0 -- -- 21
2019-08-02 17:00:00 31.8 16 Noroeste 27 Oeste 0 -- -- 23
2019-08-02 16:00:00 32.3 6 Oeste 23 Sudoeste 0 -- -- 23
2019-08-02 15:00:00 31.4 11 Oeste 30 Oeste 0 -- -- 24
2019-08-02 14:00:00 30.5 7 Sur 23 Nordeste 0 -- -- 25
2019-08-02 13:00:00 30.1 6 Sudeste 18 Este 0 -- -- 22
2019-08-02 12:00:00 27.9 7 Este 18 Este 0 -- -- 45
2019-08-02 11:00:00 24.7 13 Este 19 Este 0 -- -- 54
2019-08-02 10:00:00 21.1 12 Este 16 Este 0 -- -- 67
2019-08-02 09:00:00 17 4 Este 6 Este 0 -- -- 76
2019-08-02 08:00:00 12.6 4 Este 6 Este 0 -- -- 88
2019-08-02 07:00:00 11.8 4 Este 7 Este 0 -- -- 90
2019-08-02 06:00:00 13.1 3 Este 6 Nordeste 0 -- -- 87
2019-08-02 05:00:00 13.7 3 Este -- -- 0 -- -- 86
2019-08-02 04:00:00 14.4 3 Sudeste 5 Sudeste 0 -- -- 83
2019-08-02 03:00:00 16.2 2 Nordeste 4 Este 0 -- -- 79
2019-08-02 02:00:00 18.2 2 Sudeste 8 Sudeste 0 -- -- 69
2019-08-02 01:00:00 19.6 3 Este 6 Este 0 -- -- 66
2019-08-02 00:00:00 21.4 5 Este 12 Nordeste 0 -- -- 60
2019-08-01 23:00:00 22.6 7 Nordeste 14 Nordeste 0 -- -- 50
2019-08-01 22:00:00 24.7 10 Norte 21 Noroeste 0 -- -- 42
2019-08-01 21:00:00 27 12 Noroeste 25 Noroeste 0 -- -- 28
2019-08-01 20:00:00 29.3 19 Noroeste 44 Noroeste 0 -- -- 24
2019-08-01 19:00:00 30 22 Noroeste 38 Oeste 0 -- -- 23
2019-08-01 18:00:00 30.7 24 Oeste 45 Oeste 0 -- -- 21
2019-08-01 17:00:00 30.4 25 Noroeste 48 Oeste 0 -- -- 20
2019-08-01 16:00:00 31.1 24 Oeste 44 Sudoeste 0 -- -- 19
2019-08-01 15:00:00 30.3 29 Oeste 47 Oeste 0 -- -- 21
2019-08-01 14:00:00 28.9 21 Oeste 35 Oeste 0 -- -- 32
2019-08-01 13:00:00 27.9 11 Sudoeste 23 Sudoeste 0 -- -- 38
2019-08-01 12:00:00 27.1 9 Este 21 Este 0 -- -- 44
2019-08-01 11:00:00 24.6 14 Este 25 Este 0 -- -- 49
2019-08-01 10:00:00 21.9 20 Este 30 Este 0 -- -- 57
2019-08-01 09:00:00 19.8 15 Este 21 Este 0 -- -- 71
2019-08-01 08:00:00 18.6 15 Este 26 Este 0 -- -- 76
2019-08-01 07:00:00 18.6 19 Este 26 Este 0 -- -- 76
2019-08-01 06:00:00 18.4 11 Este 23 Este 0 -- -- 71
2019-08-01 05:00:00 19 10 Este 26 Sudeste 0 -- -- 67
2019-08-01 04:00:00 19.8 21 Este 28 Sudeste 0 -- -- 61
2019-08-01 03:00:00 19.9 11 Este 24 Sudeste 0 -- -- 59
2019-08-01 02:00:00 20.2 11 Este 17 Este 0 -- -- 54
2019-08-01 01:00:00 20.7 10 Este 25 Este 0 -- -- 49
2019-08-01 00:00:00 21.3 10 Este 28 Este 0 -- -- 46
2019-07-31 23:00:00 22.6 19 Este 46 Este 0 -- -- 42
2019-07-31 22:00:00 24.2 21 Este 41 Este 0 -- -- 39
2019-07-31 21:00:00 26.3 23 Este 43 Este 0 -- -- 35
2019-07-31 20:00:00 29.8 11 Sur 24 Sur 0 -- -- 27
2019-07-31 19:00:00 32 18 Sudoeste 31 Sur 0 -- -- 19
2019-07-31 18:00:00 31.5 20 Sudoeste 44 Sudoeste 0 -- -- 25
2019-07-31 17:00:00 31.1 22 Este 40 Este 0 -- -- 27
2019-07-31 16:00:00 30 18 Este 35 Este 0 -- -- 31
2019-07-31 15:00:00 28.6 19 Este 36 Este 0 -- -- 32
2019-07-31 14:00:00 26.6 21 Este 33 Este 0 -- -- 36
2019-07-31 13:00:00 24.4 17 Sudeste 30 Sudeste 0 -- -- 39
2019-07-31 12:00:00 22.5 19 Este 31 Este 0 -- -- 41
2019-07-31 11:00:00 19.6 23 Este 31 Este 0 -- -- 47
2019-07-31 10:00:00 16.8 18 Este 27 Este 0 -- -- 54
2019-07-31 09:00:00 13.8 8 Este 14 Este 0 -- -- 66
2019-07-31 08:00:00 10.4 7 Este 12 Este 0 -- -- 78
2019-07-31 07:00:00 8.1 6 Este 10 Este 0 -- -- 85
2019-07-31 06:00:00 8.2 4 Este 9 Este 0 -- -- 84
2019-07-31 05:00:00 10 8 Este 12 Este 0 -- -- 81
2019-07-31 04:00:00 10.4 5 Este 16 Nordeste 0 -- -- 79
2019-07-31 03:00:00 12.1 10 Este 21 Sudeste 0 -- -- 72
2019-07-31 02:00:00 13.2 13 Este 21 Sudeste 0 -- -- 68
2019-07-31 01:00:00 14.2 10 Este 22 Este 0 -- -- 64
2019-07-31 00:00:00 15.5 14 Este 24 Este 0 -- -- 59
2019-07-30 23:00:00 17 12 Este 24 Sudeste 0 -- -- 51
2019-07-30 22:00:00 19.8 17 Este 24 Este 0 -- -- 44
2019-07-30 21:00:00 23.4 10 Oeste 18 Oeste 0 -- -- 28
2019-07-30 20:00:00 24.9 10 Noroeste 21 Noroeste 0 -- -- 27
2019-07-30 19:00:00 26.7 6 Noroeste 23 Oeste 0 -- -- 25
2019-07-30 18:00:00 25.6 12 Noroeste 20 Oeste 0 -- -- 26
2019-07-30 17:00:00 24.6 9 Noroeste 26 Oeste 0 -- -- 27
2019-07-30 16:00:00 24.3 12 Noroeste 30 Noroeste 0 -- -- 25
2019-07-30 15:00:00 23.4 7 Oeste 24 Noroeste 0 -- -- 26
2019-07-30 14:00:00 21.9 14 Noroeste 24 Oeste 0 -- -- 31
2019-07-30 13:00:00 20.4 11 Noroeste 24 Noroeste 0 -- -- 33
2019-07-30 12:00:00 19.4 6 Oeste 17 Oeste 0 -- -- 47
2019-07-30 11:00:00 16.9 9 Oeste 18 Oeste 0 -- -- 62
2019-07-30 10:00:00 14.9 6 Norte 19 Noroeste 0 -- -- 69
2019-07-30 09:00:00 12.3 14 Oeste 24 Oeste 0 -- -- 78
2019-07-30 08:00:00 11.4 12 Oeste 20 Oeste 0 -- -- 76
2019-07-30 07:00:00 11.1 15 Oeste 25 Oeste 0 -- -- 85
2019-07-30 06:00:00 11.9 20 Oeste 25 Oeste 0 -- -- 67
2019-07-30 05:00:00 12.2 15 Oeste 27 Oeste 0 -- -- 78
2019-07-30 04:00:00 13.6 19 Oeste 24 Oeste 0 -- -- 72
2019-07-30 03:00:00 14.4 14 Oeste 20 Oeste 0 -- -- 64
2019-07-30 02:00:00 15.8 13 Oeste 22 Oeste 0 -- -- 47
2019-07-30 01:00:00 17.4 10 Oeste 24 Oeste 0 -- -- 36
2019-07-30 00:00:00 19 19 Oeste 28 Oeste 0 -- -- 31
2019-07-29 23:00:00 20.4 15 Noroeste 27 Noroeste 0 -- -- 29
2019-07-29 22:00:00 22.2 19 Oeste 31 Noroeste 0 -- -- 27
2019-07-29 21:00:00 24.6 24 Noroeste 40 Oeste 0 -- -- 25
2019-07-29 20:00:00 26.3 28 Noroeste 43 Oeste 0 -- -- 25
2019-07-29 19:00:00 27.4 28 Oeste 53 Noroeste 0 -- -- 32
2019-07-29 18:00:00 28 32 Oeste 50 Oeste 0 -- -- 28
2019-07-29 17:00:00 28.6 23 Noroeste 55 Noroeste 0 -- -- 26
2019-07-29 16:00:00 28.3 21 Oeste 33 Oeste 0 -- -- 25
2019-07-29 15:00:00 27.5 20 Noroeste 36 Noroeste 0 -- -- 26
2019-07-29 14:00:00 27.2 14 Oeste 30 Oeste 0 -- -- 29
2019-07-29 13:00:00 25.3 9 Oeste 21 Oeste 0 -- -- 32
2019-07-29 12:00:00 23.2 9 Noroeste 22 Oeste 0 -- -- 34
2019-07-29 11:00:00 21.2 13 Noroeste 23 Oeste 0 -- -- 37
2019-07-29 10:00:00 18.9 15 Oeste 22 Oeste 0 -- -- 41
2019-07-29 09:00:00 13.8 3 Este 6 Este 0 -- -- 63
2019-07-29 08:00:00 10.2 2 Este 6 Sudoeste 0 -- -- 71
2019-07-29 07:00:00 8.6 2 Este 4 Este 0 -- -- 76
2019-07-29 06:00:00 8.6 2 Nordeste 6 Nordeste 0 -- -- 74
2019-07-29 05:00:00 8.5 5 Este 7 Este 0 -- -- 69
2019-07-29 04:00:00 9.5 2 Nordeste 10 Nordeste 0 -- -- 66
2019-07-29 03:00:00 9.6 5 Este 10 Este 0 -- -- 64
2019-07-29 02:00:00 10.9 4 Este 8 Nordeste 0 -- -- 59
2019-07-29 01:00:00 13.2 4 Nordeste 6 Este 0 -- -- 50
2019-07-29 00:00:00 15.4 3 Nordeste 5 Nordeste 0 -- -- 44
2019-07-28 23:00:00 18.2 2 Este 5 Nordeste 0 -- -- 35
2019-07-28 22:00:00 20.8 4 Noroeste 19 Noroeste 0 -- -- 28
2019-07-28 21:00:00 24.2 16 Noroeste 30 Noroeste 0 -- -- 23
2019-07-28 20:00:00 25.4 17 Noroeste 33 Oeste 0 -- -- 22
2019-07-28 19:00:00 26.2 17 Noroeste 33 Oeste 0 -- -- 20
2019-07-28 18:00:00 25.5 19 Noroeste 35 Oeste 0 -- -- 22
2019-07-28 17:00:00 25.3 16 Oeste 33 Oeste 0 -- -- 22
2019-07-28 16:00:00 24.1 18 Oeste 34 Oeste 0 -- -- 26
2019-07-28 15:00:00 23.3 11 Noroeste 27 Oeste 0 -- -- 33
2019-07-28 14:00:00 22.6 12 Oeste 23 Oeste 0 -- -- 36
2019-07-28 13:00:00 20.8 8 Noroeste 21 Oeste 0 -- -- 40
2019-07-28 12:00:00 18.9 8 Oeste 18 Noroeste 0 -- -- 48
2019-07-28 11:00:00 17.1 5 Oeste 12 Oeste 0 -- -- 58
2019-07-28 10:00:00 14.3 8 Sudoeste 12 Oeste 0 -- -- 69
2019-07-28 09:00:00 10.1 2 Nordeste 6 Nordeste 0 -- -- 81
2019-07-28 08:00:00 6.6 3 Este 5 Este 0 -- -- 91
2019-07-28 07:00:00 5.7 3 Sudeste 5 Noroeste 0 -- -- 92
2019-07-28 06:00:00 6.3 2 Este 7 Nordeste 0 -- -- 91
2019-07-28 05:00:00 7.6 0 Calma 4 Sur 0 -- -- 91
2019-07-28 04:00:00 8 0 Calma 4 Sudeste 0 -- -- 91
2019-07-28 03:00:00 8.2 2 Este 6 Este 0 -- -- 89
2019-07-28 02:00:00 10.2 4 Norte 6 Noroeste 0 -- -- 85
2019-07-28 01:00:00 12 4 Oeste 10 Oeste 0 -- -- 78
2019-07-28 00:00:00 13 2 Norte 14 Oeste 0 -- -- 74
2019-07-27 23:00:00 14.3 7 Noroeste 11 Nordeste 0 -- -- 71
2019-07-26 12:00:00 -- -- -- -- -- -- -- -- --
2019-07-26 11:00:00 21.6 17 Noroeste 27 Oeste 0 -- -- 64
2019-07-26 10:00:00 20.6 14 Oeste 23 Oeste 0 -- -- 69
2019-07-26 09:00:00 18.6 7 Sudoeste 15 Sur 0 -- -- 76
2019-07-26 08:00:00 18.5 4 Sudoeste 12 Sudoeste 0 -- -- 83
2019-07-26 07:00:00 18.7 11 Este 18 Este 0 -- -- 82
2019-07-26 06:00:00 19.4 6 Oeste 21 Oeste 0 -- -- 70
2019-07-26 05:00:00 19.3 20 Oeste 33 Oeste 0.2 -- -- 72
2019-07-26 04:00:00 20.8 12 Oeste 19 Oeste 0 -- -- 60
2019-07-26 03:00:00 21.5 7 Sudoeste 14 Sudoeste 0 -- -- 50
2019-07-26 02:00:00 22.3 11 Oeste 14 Oeste 0 -- -- 41
2019-07-26 01:00:00 20.2 2 Sudeste 11 Sudoeste 0 -- -- 46
2019-07-26 00:00:00 23.4 10 Sudoeste 15 Noroeste 0 -- -- 36
2019-07-25 23:00:00 26.1 13 Noroeste 18 Noroeste 0 -- -- 31
2019-07-25 22:00:00 26.7 7 Noroeste 22 Noroeste 0 -- -- 31
2019-07-25 21:00:00 30.1 16 Noroeste 40 Oeste 0 -- -- 25
2019-07-25 20:00:00 33.1 17 Sudoeste 36 Oeste 0 -- -- 18
2019-07-25 19:00:00 34 24 Sudoeste 40 Sudoeste 0 -- -- 18
2019-07-25 18:00:00 34.8 21 Sudoeste 39 Oeste 0 -- -- 14
2019-07-25 17:00:00 33.9 18 Sudoeste 36 Sur 0 -- -- 16
2019-07-25 16:00:00 34.5 22 Sur 38 Sur 0 -- -- 15
2019-07-25 15:00:00 34.5 19 Sur 33 Sudoeste 0 -- -- 20
2019-07-25 14:00:00 32.4 12 Oeste 21 Oeste 0 -- -- 26
2019-07-25 13:00:00 32.3 5 Sur 14 Oeste 0 -- -- 27
2019-07-25 12:00:00 29.6 5 Noroeste 13 Este 0 -- -- 29
2019-07-25 11:00:00 28.6 4 Este 11 Nordeste 0 -- -- 32
2019-07-25 10:00:00 24.8 4 Este 6 Este 0 -- -- 41
2019-07-25 09:00:00 19.5 4 Este 7 Este 0 -- -- 51
2019-07-25 08:00:00 16.5 5 Nordeste 8 Nordeste 0 -- -- 59
2019-07-25 07:00:00 15.5 2 Este 9 Este 0 -- -- 60
2019-07-25 06:00:00 16.1 4 Nordeste 11 Sudeste 0 -- -- 57
2019-07-25 05:00:00 16.7 4 Sur 12 Sudeste 0 -- -- 57
2019-07-25 04:00:00 16 3 Sur 9 Sur 0 -- -- 62
2019-07-25 03:00:00 16.6 0 Calma 5 Sudeste 0 -- -- 61
2019-07-25 02:00:00 18.3 3 Sudeste 8 Este 0 -- -- 55
2019-07-25 01:00:00 19.7 5 Norte 13 Nordeste 0 -- -- 48
2019-07-25 00:00:00 21.3 4 Este 6 Este 0 -- -- 46
2019-07-24 23:00:00 23.1 4 Sudeste 7 Oeste 0 -- -- 43
2019-07-24 22:00:00 26.3 6 Oeste 17 Sudoeste 0 -- -- 29
2019-07-24 21:00:00 31.6 11 Sudoeste 27 Sudoeste 0 -- -- 22
2019-07-24 20:00:00 32.3 11 Sudoeste 22 Sudoeste 0 -- -- 22
2019-07-24 19:00:00 32.8 19 Sudoeste 35 Sur 0 -- -- 21
2019-07-24 18:00:00 34.3 20 Sur 37 Sur 0 -- -- 20
2019-07-24 17:00:00 34.5 15 Sur 34 Sur 0 -- -- 21
2019-07-24 16:00:00 33.8 15 Sur 29 Sur 0 -- -- 21
2019-07-24 15:00:00 34.8 17 Sur 32 Sudeste 0 -- -- 20
2019-07-24 14:00:00 34.3 15 Sur 32 Sudeste 0 -- -- 22
2019-07-24 13:00:00 33.3 14 Sudeste 32 Sudeste 0 -- -- 23
2019-07-24 12:00:00 30.4 14 Este 22 Este 0 -- -- 30
2019-07-24 11:00:00 27.1 9 Este 16 Este 0 -- -- 37
2019-07-24 10:00:00 23.2 12 Este 19 Este 0 -- -- 50
2019-07-24 09:00:00 20.8 7 Este 10 Este 0 -- -- 58
2019-07-24 08:00:00 16.1 5 Este 10 Este 0 -- -- 76
2019-07-24 07:00:00 15.5 5 Este 10 Este 0 -- -- 76
2019-07-24 06:00:00 17.2 4 Nordeste 13 Nordeste 0 -- -- 69
2019-07-24 05:00:00 18.6 3 Este 8 Nordeste 0 -- -- 64
2019-07-24 04:00:00 20.6 2 Sudoeste 17 Sudoeste 0 -- -- 56
2019-07-24 03:00:00 20.7 4 Sudeste 25 Norte 0 -- -- 57
2019-07-24 02:00:00 22.8 22 Noroeste 36 Norte 0 -- -- 49
2019-07-24 01:00:00 23.3 14 Noroeste 21 Noroeste 0 -- -- 46
2019-07-24 00:00:00 23.8 4 Noroeste 22 Oeste 0 -- -- 42
2019-07-23 23:00:00 26.6 14 Oeste 45 Oeste 0 -- -- 34
2019-07-23 22:00:00 28.3 18 Sudoeste 39 Sur 0 -- -- 29
2019-07-23 21:00:00 29.9 6 Este 33 Noroeste 0 -- -- 27
2019-07-23 20:00:00 34.1 19 Sur 41 Sur 0 -- -- 20
2019-07-23 19:00:00 34.8 18 Sur 35 Sudeste 0 -- -- 20
2019-07-23 18:00:00 34.8 7 Sudeste 45 Sudoeste 0 -- -- 20
2019-07-23 17:00:00 34 16 Sur 32 Sudoeste 0 -- -- 19
2019-07-23 16:00:00 34.6 15 Sur 31 Sur 0 -- -- 19
2019-07-23 15:00:00 34.2 15 Sur 33 Sudeste 0 -- -- 20
2019-07-23 14:00:00 33.1 17 Sudeste 34 Sudeste 0 -- -- 22
2019-07-23 13:00:00 30.7 18 Sudeste 34 Sudeste 0 -- -- 26
2019-07-23 12:00:00 29 15 Este 24 Este 0 -- -- 33
2019-07-23 11:00:00 26.6 5 Sur 21 Oeste 0 -- -- 39
2019-07-23 10:00:00 24.3 6 Noroeste 15 Noroeste 0 -- -- 43
2019-07-23 09:00:00 18.7 2 Sudeste 6 Este 0 -- -- 60
2019-07-23 08:00:00 17.4 0 Calma 7 Este 0 -- -- 60
2019-07-23 07:00:00 14.3 6 Este 9 Este 0 -- -- 70
2019-07-23 06:00:00 15 6 Nordeste 12 Nordeste 0 -- -- 68
2019-07-23 05:00:00 15.1 4 Este 6 Este 0 -- -- 73
2019-07-23 04:00:00 17.1 3 Sudeste 4 Sudeste 0 -- -- 63
2019-07-23 03:00:00 19.3 2 Oeste 15 Oeste 0 -- -- 54
2019-07-23 02:00:00 19.2 4 Sudeste 13 Oeste 0 -- -- 55
2019-07-23 01:00:00 20.7 6 Este 7 Este 0 -- -- 52
2019-07-23 00:00:00 22.4 4 Sudeste 8 Sudeste 0 -- -- 46
2019-07-22 23:00:00 27.7 2 Sur 9 Sudoeste 0 -- -- 31
2019-07-22 22:00:00 29.4 8 Sudoeste 21 Sur 0 -- -- 27
2019-07-22 21:00:00 32.2 12 Sur 27 Sur 0 -- -- 23
2019-07-22 20:00:00 34.3 14 Sur 32 Sur 0 -- -- 20
2019-07-22 19:00:00 35 18 Sur 44 Sur 0 -- -- 19
2019-07-22 18:00:00 35.5 20 Sur 39 Sur 0 -- -- 19
2019-07-22 17:00:00 35.1 20 Sudeste 35 Sudeste 0 -- -- 19
2019-07-22 16:00:00 34.9 17 Sur 41 Sudeste 0 -- -- 19
2019-07-22 15:00:00 33.8 20 Sudeste 39 Sudeste 0 -- -- 19
2019-07-22 14:00:00 32.7 26 Sudeste 38 Sudeste 0 -- -- 20
2019-07-22 13:00:00 31.7 22 Sudeste 40 Este 0 -- -- 21
2019-07-22 12:00:00 29.9 23 Este 35 Este 0 -- -- 24
2019-07-22 11:00:00 27.1 22 Este 33 Este 0 -- -- 35
2019-07-22 10:00:00 24.5 21 Este 31 Sudeste 0 -- -- 46
2019-07-22 09:00:00 21.8 13 Este 19 Este 0 -- -- 60
2019-07-22 08:00:00 19.2 9 Nordeste 18 Este 0 -- -- 66
2019-07-22 07:00:00 19.2 14 Este 21 Este 0 -- -- 66
2019-07-22 06:00:00 19.1 10 Este 14 Este 0 -- -- 68
2019-07-22 05:00:00 19.7 6 Nordeste 9 Nordeste 0 -- -- 67
2019-07-22 04:00:00 20 4 Nordeste 9 Nordeste 0 -- -- 70
2019-07-22 03:00:00 20.5 6 Este 10 Nordeste 0 -- -- 69
2019-07-22 02:00:00 21.7 8 Este 15 Este 0 -- -- 64
2019-07-22 01:00:00 22.4 8 Este 24 Este 0 -- -- 61
2019-07-22 00:00:00 22.7 17 Este 26 Este 0 -- -- 60
2019-07-21 23:00:00 22.7 12 Este 17 Este 0 -- -- 64
2019-07-21 22:00:00 23.7 13 Nordeste 25 Nordeste 0 -- -- 61
2019-07-21 21:00:00 24.8 12 Nordeste 19 Nordeste 0 -- -- 60
2019-07-21 20:00:00 24.7 8 Nordeste 18 Este 0 -- -- 63
2019-07-21 19:00:00 24.4 14 Este 70 Sudoeste 6.4 -- -- 53
2019-07-21 18:00:00 34.1 7 Norte 19 Noroeste 0 -- -- 26
2019-07-21 17:00:00 36.1 12 Este 25 Este 0 -- -- 24
2019-07-21 16:00:00 35.4 14 Este 32 Este 0 -- -- 25
2019-07-21 15:00:00 34.5 9 Este 21 Sudeste 0 -- -- 27
2019-07-21 14:00:00 32.7 11 Nordeste 27 Este 0 -- -- 30
2019-07-21 13:00:00 31.1 17 Este 29 Este 0 -- -- 34
2019-07-21 12:00:00 28.3 18 Este 28 Sudeste 0 -- -- 41
2019-07-21 11:00:00 25.8 19 Este 31 Este 0 -- -- 48
2019-07-21 10:00:00 23.4 15 Este 28 Este 0 -- -- 59
2019-07-21 09:00:00 21.3 13 Este 25 Este 0 -- -- 68
2019-07-21 08:00:00 19.6 13 Este 22 Este 0 -- -- 74
2019-07-21 07:00:00 18.6 10 Este 21 Este 0 -- -- 77
2019-07-21 06:00:00 18.9 12 Este 24 Este 0 -- -- 77
2019-07-21 05:00:00 19.3 17 Este 24 Este 0 -- -- 76
2019-07-21 04:00:00 20.4 13 Este 17 Este 0 -- -- 72
2019-07-21 03:00:00 20.8 3 Nordeste 8 Este 0 -- -- 70
2019-07-21 02:00:00 20.2 0 Calma 5 Nordeste 0 -- -- 66
2019-07-21 01:00:00 20.9 3 Sudeste 8 Este 0 -- -- 62
2019-07-21 00:00:00 23.4 3 Este 6 Nordeste 0 -- -- 53